createdAt,value
2023-05-04T00:01:28.840Z,99.30
2023-05-04T00:04:15.851Z,99.40
2023-05-04T00:07:02.456Z,100.00
2023-05-04T00:09:51.111Z,99.31
2023-05-04T00:12:38.184Z,100.00
2023-05-04T00:15:24.836Z,100.00
2023-05-04T00:18:11.527Z,100.00
2023-05-04T00:20:59.581Z,100.00
2023-05-04T00:23:46.234Z,100.00
2023-05-04T00:26:34.319Z,100.00
2023-05-04T00:29:21.181Z,100.00
2023-05-04T00:32:07.901Z,100.00
2023-05-04T00:34:54.852Z,100.00
2023-05-04T00:37:43.828Z,100.00
2023-05-04T00:40:30.358Z,100.00
2023-05-04T00:43:18.587Z,100.00
2023-05-04T00:46:05.395Z,100.00
2023-05-04T00:48:53.735Z,100.00
2023-05-04T00:51:41.182Z,100.00
2023-05-04T00:54:29.096Z,100.00
2023-05-04T00:57:18.043Z,100.00
2023-05-04T01:00:08.650Z,100.00
2023-05-04T01:02:55.134Z,100.00
2023-05-04T01:05:53.487Z,100.00
2023-05-04T01:08:43.573Z,100.00
2023-05-04T01:11:37.482Z,100.00
2023-05-04T01:14:25.348Z,100.00
2023-05-04T01:17:13.822Z,100.00
2023-05-04T01:20:00.450Z,100.00
2023-05-04T01:22:48.765Z,100.00
2023-05-04T01:25:41.016Z,100.00
2023-05-04T01:28:36.226Z,100.00
2023-05-04T01:31:26.290Z,100.00
2023-05-04T01:34:13.971Z,100.00
2023-05-04T01:37:00.747Z,100.00
2023-05-04T01:39:48.826Z,100.00
2023-05-04T01:42:35.616Z,100.00
2023-05-04T01:45:22.641Z,100.00
2023-05-04T01:48:09.487Z,100.00
2023-05-04T01:50:56.100Z,100.00
2023-05-04T01:53:42.818Z,100.00
2023-05-04T01:56:31.632Z,100.00
2023-05-04T01:59:18.480Z,100.00
2023-05-04T02:02:05.171Z,100.00
2023-05-04T02:04:51.752Z,100.00
2023-05-04T02:07:38.579Z,100.00
2023-05-04T02:10:26.931Z,100.00
2023-05-04T02:13:15.013Z,100.00
2023-05-04T02:16:02.020Z,100.00
2023-05-04T02:18:48.490Z,100.00
2023-05-04T02:21:35.990Z,100.00
2023-05-04T02:24:22.524Z,100.00
2023-05-04T02:27:09.227Z,100.00
2023-05-04T02:29:58.499Z,100.00
2023-05-04T02:32:45.117Z,100.00
2023-05-04T02:35:31.907Z,100.00
2023-05-04T02:38:18.521Z,100.00
2023-05-04T02:41:05.439Z,100.00
2023-05-04T02:43:52.273Z,100.00
2023-05-04T02:46:40.458Z,100.00
2023-05-04T02:49:27.083Z,100.00
2023-05-04T02:52:13.976Z,100.00
2023-05-04T02:55:03.360Z,100.00
2023-05-04T02:57:50.147Z,100.00
2023-05-04T03:00:37.023Z,100.00
2023-05-04T03:03:25.233Z,100.00
2023-05-04T03:06:12.301Z,100.00
2023-05-04T03:08:58.996Z,100.00
2023-05-04T03:11:45.861Z,100.00
2023-05-04T03:14:32.654Z,100.00
2023-05-04T03:17:19.794Z,100.00
2023-05-04T03:20:10.052Z,100.00
2023-05-04T03:22:56.542Z,100.00
2023-05-04T03:25:44.784Z,100.00
2023-05-04T03:28:31.357Z,100.00
2023-05-04T03:31:18.387Z,100.00
2023-05-04T03:34:09.765Z,100.00
2023-05-04T03:36:57.982Z,100.00
2023-05-04T03:39:45.089Z,100.00
2023-05-04T03:42:31.898Z,100.00
2023-05-04T03:45:19.007Z,100.00
2023-05-04T03:48:05.609Z,100.00
2023-05-04T03:50:52.500Z,100.00
2023-05-04T03:53:41.377Z,100.00
2023-05-04T03:56:29.212Z,100.00
2023-05-04T03:59:17.629Z,100.00
2023-05-04T04:02:05.159Z,100.00
2023-05-04T04:04:51.957Z,100.00
2023-05-04T04:07:38.685Z,100.00
2023-05-04T04:10:27.021Z,100.00
2023-05-04T04:13:13.622Z,100.00
2023-05-04T04:16:00.544Z,100.00
2023-05-04T04:18:48.121Z,100.00
2023-05-04T04:21:35.358Z,100.00
2023-05-04T04:24:22.277Z,100.00
2023-05-04T04:27:10.411Z,100.00
2023-05-04T04:29:57.426Z,100.00
2023-05-04T04:32:44.325Z,100.00
2023-05-04T04:35:32.795Z,100.00
2023-05-04T04:38:19.402Z,100.00
2023-05-04T04:41:06.461Z,100.00
2023-05-04T04:43:54.422Z,100.00
2023-05-04T04:46:41.287Z,100.00
2023-05-04T04:49:27.917Z,100.00
2023-05-04T04:52:15.669Z,100.00
2023-05-04T04:55:02.505Z,100.00
2023-05-04T04:57:48.933Z,100.00
2023-05-04T05:00:37.523Z,100.00
2023-05-04T05:03:24.144Z,95.27
2023-05-04T05:06:11.398Z,82.79
2023-05-04T05:08:58.347Z,74.59
2023-05-04T05:11:45.099Z,67.06
2023-05-04T05:14:39.377Z,63.88
2023-05-04T05:17:37.081Z,58.83
2023-05-04T05:20:34.385Z,54.25
2023-05-04T05:23:26.282Z,55.81
2023-05-04T05:26:14.574Z,52.55
2023-05-04T05:29:01.848Z,52.60
2023-05-04T05:31:49.517Z,51.36
2023-05-04T05:34:39.026Z,51.66
2023-05-04T05:37:25.721Z,48.98
2023-05-04T05:40:14.205Z,49.48
2023-05-04T05:43:01.240Z,47.67
2023-05-04T05:45:48.821Z,47.02
2023-05-04T05:48:35.695Z,44.96
2023-05-04T05:51:23.593Z,44.58
2023-05-04T05:54:10.602Z,45.01
2023-05-04T05:56:56.971Z,44.02
2023-05-04T05:59:45.862Z,43.51
2023-05-04T06:02:32.784Z,45.21
2023-05-04T06:05:19.486Z,47.10
2023-05-04T06:08:07.764Z,48.99
2023-05-04T06:10:56.422Z,50.35
2023-05-04T06:13:43.210Z,53.90
2023-05-04T06:16:29.878Z,54.20
2023-05-04T06:19:16.671Z,50.53
2023-05-04T06:22:04.211Z,48.81
2023-05-04T06:24:53.999Z,49.06
2023-05-04T06:27:43.729Z,49.55
2023-05-04T06:30:30.465Z,50.43
2023-05-04T06:33:17.795Z,49.39
2023-05-04T06:36:04.877Z,48.95
2023-05-04T06:38:51.378Z,49.70
2023-05-04T06:41:39.506Z,49.67
2023-05-04T06:44:26.456Z,51.60
2023-05-04T06:47:12.821Z,52.30
2023-05-04T06:49:59.768Z,55.20
2023-05-04T06:52:47.509Z,55.47
2023-05-04T06:55:34.076Z,55.58
2023-05-04T06:58:22.415Z,56.95
2023-05-04T07:01:09.442Z,57.11
2023-05-04T07:03:58.461Z,54.47
2023-05-04T07:06:45.051Z,54.22
2023-05-04T07:09:31.911Z,54.58
2023-05-04T07:12:19.265Z,54.78
2023-05-04T07:15:08.918Z,55.58
2023-05-04T07:17:55.715Z,54.90
2023-05-04T07:20:43.354Z,55.69
2023-05-04T07:23:30.203Z,56.98
2023-05-04T07:26:16.878Z,56.10
2023-05-04T07:29:03.671Z,55.83
2023-05-04T07:31:52.086Z,55.18
2023-05-04T07:34:45.697Z,56.25
2023-05-04T07:37:33.557Z,55.85
2023-05-04T07:40:21.580Z,55.59
2023-05-04T07:43:08.063Z,54.40
2023-05-04T07:45:55.126Z,55.74
2023-05-04T07:48:42.971Z,54.92
2023-05-04T07:51:29.912Z,53.72
2023-05-04T07:54:16.590Z,52.36
2023-05-04T07:57:04.373Z,52.59
2023-05-04T07:59:55.243Z,52.82
2023-05-04T08:02:42.054Z,53.24
2023-05-04T08:05:30.213Z,53.00
2023-05-04T08:08:17.394Z,52.07
2023-05-04T08:11:18.498Z,52.10
2023-05-04T08:14:06.799Z,53.35
2023-05-04T08:16:53.724Z,52.81
2023-05-04T08:19:40.568Z,50.99
2023-05-04T08:22:28.635Z,48.78
2023-05-04T08:25:15.693Z,48.69
2023-05-04T08:28:02.501Z,48.29
2023-05-04T08:30:49.398Z,47.59
2023-05-04T08:33:36.100Z,49.29
2023-05-04T08:36:22.962Z,46.49
2023-05-04T08:39:12.082Z,39.41
2023-05-04T08:41:59.112Z,37.23
2023-05-04T08:44:45.999Z,35.32
2023-05-04T08:47:32.990Z,37.96
2023-05-04T08:50:19.735Z,36.04
2023-05-04T08:53:08.486Z,34.42
2023-05-04T08:55:57.670Z,35.78
2023-05-04T08:58:50.520Z,36.88
2023-05-04T09:01:39.100Z,36.28
2023-05-04T09:04:29.328Z,34.43
2023-05-04T09:07:16.502Z,33.37
2023-05-04T09:10:04.259Z,34.34
2023-05-04T09:12:56.113Z,34.44
2023-05-04T09:15:43.190Z,34.62
2023-05-04T09:18:40.701Z,34.02
2023-05-04T09:21:30.237Z,32.75
2023-05-04T09:24:27.005Z,33.51
2023-05-04T09:27:15.882Z,33.57
2023-05-04T09:30:05.568Z,33.30
2023-05-04T09:32:53.088Z,34.06
2023-05-04T09:35:42.226Z,35.38
2023-05-04T09:38:29.835Z,34.76
2023-05-04T09:41:16.709Z,34.92
2023-05-04T09:44:03.539Z,35.03
2023-05-04T09:46:55.967Z,35.31
2023-05-04T09:49:42.481Z,36.21
2023-05-04T09:52:33.148Z,34.09
2023-05-04T09:55:21.244Z,34.65
2023-05-04T09:58:08.508Z,34.32
2023-05-04T10:00:55.004Z,34.36
2023-05-04T10:03:44.729Z,34.19
2023-05-04T10:06:31.512Z,31.57
2023-05-04T10:09:18.408Z,32.64
2023-05-04T10:12:05.755Z,32.16
2023-05-04T10:14:52.992Z,31.33
2023-05-04T10:17:55.893Z,31.54
2023-05-04T10:21:16.352Z,31.30
2023-05-04T10:24:26.827Z,32.05
2023-05-04T10:27:16.961Z,32.54
2023-05-04T10:30:05.114Z,31.30
2023-05-04T10:32:57.375Z,32.67
2023-05-04T10:35:53.617Z,32.41
2023-05-04T10:38:41.717Z,30.72
2023-05-04T10:41:28.581Z,32.27
2023-05-04T10:44:15.261Z,32.49
2023-05-04T10:47:03.949Z,32.98
2023-05-04T10:50:01.472Z,32.40
2023-05-04T10:52:50.780Z,31.21
2023-05-04T10:55:42.073Z,32.40
2023-05-04T10:58:29.991Z,32.79
2023-05-04T11:01:16.855Z,32.50
2023-05-04T11:04:03.730Z,33.42
2023-05-04T11:06:58.373Z,32.56
2023-05-04T11:09:46.505Z,33.05
2023-05-04T11:12:33.545Z,33.08
2023-05-04T11:15:20.648Z,32.88
2023-05-04T11:18:07.564Z,32.60
2023-05-04T11:20:54.357Z,32.24
2023-05-04T11:23:41.527Z,30.40
2023-05-04T11:26:29.488Z,32.63
2023-05-04T11:29:16.613Z,32.14
2023-05-04T11:32:03.097Z,31.58
2023-05-04T11:34:49.832Z,34.12
2023-05-04T11:37:41.343Z,31.15
2023-05-04T11:40:28.638Z,31.86
2023-05-04T11:43:18.031Z,31.28
2023-05-04T11:46:05.644Z,30.07
2023-05-04T11:48:52.804Z,31.40
2023-05-04T11:51:39.399Z,31.64
2023-05-04T11:54:26.201Z,31.42
2023-05-04T11:57:22.906Z,32.01
2023-05-04T12:00:12.530Z,31.04
2023-05-04T12:03:00.912Z,30.97
2023-05-04T12:05:48.535Z,31.48
2023-05-04T12:08:38.164Z,31.49
2023-05-04T12:11:26.046Z,33.76
2023-05-04T12:14:15.176Z,31.99
2023-05-04T12:17:03.553Z,32.39
2023-05-04T12:19:56.136Z,31.97
2023-05-04T12:22:42.959Z,31.00
2023-05-04T12:25:29.718Z,33.40
2023-05-04T12:28:16.570Z,31.21
2023-05-04T12:31:04.765Z,31.92
2023-05-04T12:33:52.832Z,31.01
2023-05-04T12:36:39.475Z,31.25
2023-05-04T12:39:28.067Z,31.44
2023-05-04T12:42:14.592Z,33.23
2023-05-04T12:45:01.521Z,32.46
2023-05-04T12:47:48.127Z,32.03
2023-05-04T12:50:36.287Z,30.13
2023-05-04T12:53:25.982Z,30.97
2023-05-04T12:56:12.390Z,32.30
2023-05-04T12:58:59.133Z,32.23
2023-05-04T13:01:46.311Z,32.46
2023-05-04T13:04:33.037Z,32.35
2023-05-04T13:07:21.055Z,32.37
2023-05-04T13:10:09.003Z,30.44
2023-05-04T13:12:56.055Z,31.00
2023-05-04T13:15:43.353Z,31.65
2023-05-04T13:18:34.712Z,32.27
2023-05-04T13:21:21.976Z,31.33
2023-05-04T13:24:11.429Z,32.55
2023-05-04T13:26:58.392Z,32.29
2023-05-04T13:29:45.372Z,31.88
2023-05-04T13:32:33.247Z,31.88
2023-05-04T13:35:20.833Z,32.95
2023-05-04T13:38:07.420Z,32.97
2023-05-04T13:40:55.615Z,30.90
2023-05-04T13:43:42.397Z,31.85
2023-05-04T13:46:29.230Z,31.67
2023-05-04T13:49:16.070Z,30.40
2023-05-04T13:52:02.989Z,32.07
2023-05-04T13:54:49.713Z,30.95
2023-05-04T13:57:37.953Z,31.40
2023-05-04T14:00:24.856Z,32.14
2023-05-04T14:03:11.685Z,32.03
2023-05-04T14:05:59.300Z,32.38
2023-05-04T14:08:45.784Z,31.63
2023-05-04T14:11:32.993Z,30.62
2023-05-04T14:14:21.909Z,31.51
2023-05-04T14:17:08.997Z,31.77
2023-05-04T14:19:56.868Z,31.00
2023-05-04T14:22:43.671Z,31.05
2023-05-04T14:25:32.407Z,31.74
2023-05-04T14:28:21.828Z,32.16
2023-05-04T14:31:10.926Z,32.03
2023-05-04T14:33:57.705Z,31.98
2023-05-04T14:36:44.555Z,32.28
2023-05-04T14:39:31.346Z,32.96
2023-05-04T14:42:18.121Z,33.23
2023-05-04T14:45:05.417Z,32.55
2023-05-04T14:47:53.695Z,33.21
2023-05-04T14:50:41.636Z,33.82
2023-05-04T14:53:29.916Z,34.17
2023-05-04T14:56:16.612Z,33.95
2023-05-04T14:59:03.524Z,33.41
2023-05-04T15:01:50.520Z,34.97
2023-05-04T15:04:38.563Z,33.17
2023-05-04T15:07:26.912Z,31.61
2023-05-04T15:10:14.907Z,34.92
2023-05-04T15:13:03.383Z,32.74
2023-05-04T15:15:50.029Z,32.37
2023-05-04T15:18:36.843Z,31.69
2023-05-04T15:21:24.964Z,31.78
2023-05-04T15:24:11.825Z,33.38
2023-05-04T15:26:58.792Z,32.53
2023-05-04T15:29:45.248Z,33.93
2023-05-04T15:32:32.397Z,34.73
2023-05-04T15:35:19.353Z,36.53
2023-05-04T15:38:07.229Z,37.39
2023-05-04T15:40:54.145Z,36.89
2023-05-04T15:43:40.964Z,38.29
2023-05-04T15:46:27.765Z,36.96
2023-05-04T15:49:14.748Z,37.55
2023-05-04T15:52:01.524Z,35.40
2023-05-04T15:54:49.512Z,36.62
2023-05-04T15:57:36.804Z,38.61
2023-05-04T16:00:24.002Z,39.29
2023-05-04T16:03:10.538Z,39.11
2023-05-04T16:05:57.344Z,40.27
2023-05-04T16:08:44.220Z,38.52
2023-05-04T16:11:33.221Z,37.91
2023-05-04T16:14:19.942Z,37.49
2023-05-04T16:17:07.514Z,37.51
2023-05-04T16:19:54.173Z,37.21
2023-05-04T16:22:40.837Z,38.95
2023-05-04T16:25:27.567Z,38.98
2023-05-04T16:28:28.000Z,39.21
2023-05-04T16:31:14.817Z,39.53
2023-05-04T16:34:01.716Z,40.65
2023-05-04T16:36:48.470Z,41.29
2023-05-04T16:39:36.219Z,40.15
2023-05-04T16:42:22.773Z,39.45
2023-05-04T16:45:13.560Z,39.93
2023-05-04T16:48:01.086Z,41.08
2023-05-04T16:50:47.864Z,40.66
2023-05-04T16:53:34.605Z,40.94
2023-05-04T16:56:21.401Z,41.67
2023-05-04T16:59:08.076Z,41.37
2023-05-04T17:01:56.568Z,41.49
2023-05-04T17:04:43.646Z,42.20
2023-05-04T17:07:30.163Z,42.22
2023-05-04T17:10:18.371Z,42.41
2023-05-04T17:13:05.112Z,43.58
2023-05-04T17:15:51.689Z,43.75
2023-05-04T17:18:40.452Z,44.25
2023-05-04T17:21:27.445Z,45.03
2023-05-04T17:24:15.215Z,44.58
2023-05-04T17:27:03.246Z,44.97
2023-05-04T17:29:50.031Z,45.46
2023-05-04T17:32:37.500Z,45.94
2023-05-04T17:35:26.779Z,46.73
2023-05-04T17:38:13.605Z,46.58
2023-05-04T17:41:00.445Z,48.04
2023-05-04T17:43:50.236Z,47.97
2023-05-04T17:46:36.917Z,49.71
2023-05-04T17:49:23.344Z,49.59
2023-05-04T17:52:13.657Z,50.08
2023-05-04T17:55:01.176Z,51.30
2023-05-04T17:57:47.877Z,51.66
2023-05-04T18:00:34.867Z,52.55
2023-05-04T18:03:21.487Z,53.55
2023-05-04T18:06:08.323Z,53.00
2023-05-04T18:08:56.354Z,52.30
2023-05-04T18:11:43.069Z,52.36
2023-05-04T18:14:30.038Z,52.60
2023-05-04T18:17:16.847Z,52.44
2023-05-04T18:20:04.344Z,52.43
2023-05-04T18:22:51.042Z,53.51
2023-05-04T18:25:39.183Z,54.61
2023-05-04T18:28:25.671Z,54.42
2023-05-04T18:31:12.439Z,55.83
2023-05-04T18:34:02.529Z,56.31
2023-05-04T18:36:49.427Z,55.88
2023-05-04T18:39:36.580Z,55.65
2023-05-04T18:42:24.508Z,55.01
2023-05-04T18:45:12.467Z,54.46
2023-05-04T18:47:58.973Z,54.72
2023-05-04T18:50:54.029Z,54.69
2023-05-04T18:53:40.692Z,55.08
2023-05-04T18:56:27.699Z,55.26
2023-05-04T18:59:15.506Z,54.81
2023-05-04T19:02:02.582Z,54.22
2023-05-04T19:04:48.943Z,52.95
2023-05-04T19:07:35.824Z,51.89
2023-05-04T19:10:22.475Z,51.67
2023-05-04T19:13:09.512Z,51.90
2023-05-04T19:15:57.485Z,51.14
2023-05-04T19:18:44.640Z,52.39
2023-05-04T19:21:31.971Z,51.43
2023-05-04T19:24:19.022Z,49.72
2023-05-04T19:27:05.628Z,49.68
2023-05-04T19:29:52.228Z,50.22
2023-05-04T19:32:40.576Z,50.36
2023-05-04T19:35:27.069Z,50.90
2023-05-04T19:38:13.646Z,52.81
2023-05-04T19:41:00.473Z,52.61
2023-05-04T19:43:47.178Z,52.09
2023-05-04T19:46:33.955Z,53.33
2023-05-04T19:49:22.364Z,53.94
2023-05-04T19:52:09.289Z,55.01
2023-05-04T19:54:56.017Z,54.92
2023-05-04T19:57:42.769Z,55.71
2023-05-04T20:00:29.721Z,55.68
2023-05-04T20:03:17.143Z,56.84
2023-05-04T20:06:05.367Z,57.64
2023-05-04T20:08:52.353Z,59.52
2023-05-04T20:11:39.093Z,61.28
2023-05-04T20:14:25.807Z,60.98
2023-05-04T20:17:12.669Z,62.65
2023-05-04T20:19:59.634Z,60.68
2023-05-04T20:22:49.215Z,60.83
2023-05-04T20:25:35.815Z,60.71
2023-05-04T20:28:23.064Z,61.20
2023-05-04T20:31:10.114Z,61.19
2023-05-04T20:33:56.660Z,61.86
2023-05-04T20:36:43.411Z,62.54
2023-05-04T20:39:31.611Z,62.74
2023-05-04T20:42:18.722Z,63.06
2023-05-04T20:45:06.594Z,62.52
2023-05-04T20:47:53.381Z,62.67
2023-05-04T20:50:40.423Z,63.39
2023-05-04T20:53:27.522Z,63.68
2023-05-04T20:56:15.821Z,63.79
2023-05-04T20:59:04.673Z,65.05
2023-05-04T21:01:51.502Z,65.39
2023-05-04T21:04:38.334Z,65.44
2023-05-04T21:07:25.216Z,64.58
2023-05-04T21:10:12.256Z,65.25
2023-05-04T21:13:05.703Z,65.94
2023-05-04T21:15:55.281Z,65.50
2023-05-04T21:18:45.849Z,66.41
2023-05-04T21:21:34.815Z,65.29
2023-05-04T21:24:22.017Z,65.22
2023-05-04T21:27:09.040Z,65.41
2023-05-04T21:29:57.223Z,66.02
2023-05-04T21:32:43.785Z,65.98
2023-05-04T21:35:30.916Z,66.86
2023-05-04T21:38:18.975Z,67.68
2023-05-04T21:41:12.688Z,67.53
2023-05-04T21:43:59.314Z,68.33
2023-05-04T21:46:47.557Z,68.89
2023-05-04T21:49:34.447Z,69.57
2023-05-04T21:52:21.629Z,69.70
2023-05-04T21:55:08.730Z,70.17
2023-05-04T21:57:56.216Z,69.64
2023-05-04T22:00:43.997Z,69.28
2023-05-04T22:03:32.385Z,69.71
2023-05-04T22:06:18.992Z,70.37
2023-05-04T22:09:05.931Z,70.00
2023-05-04T22:11:52.553Z,70.10
2023-05-04T22:14:41.641Z,70.31
2023-05-04T22:17:28.916Z,70.79
2023-05-04T22:20:17.034Z,71.06
2023-05-04T22:23:04.005Z,71.39
2023-05-04T22:25:50.771Z,70.75
2023-05-04T22:28:37.687Z,71.24
2023-05-04T22:31:24.330Z,70.40
2023-05-04T22:34:11.094Z,69.76
2023-05-04T22:36:59.267Z,70.82
2023-05-04T22:39:45.982Z,70.58
2023-05-04T22:42:32.717Z,70.35
2023-05-04T22:45:19.860Z,70.28
2023-05-04T22:48:06.329Z,69.17
2023-05-04T22:50:53.227Z,68.66
2023-05-04T22:53:41.118Z,69.39
2023-05-04T22:56:27.737Z,69.52
2023-05-04T22:59:15.087Z,70.19
2023-05-04T23:02:01.874Z,69.90
2023-05-04T23:04:48.470Z,70.50
2023-05-04T23:07:34.983Z,70.94
2023-05-04T23:10:23.572Z,71.32
2023-05-04T23:13:10.498Z,71.16
2023-05-04T23:15:57.794Z,71.88
2023-05-04T23:18:44.631Z,71.65
2023-05-04T23:21:31.643Z,71.94
2023-05-04T23:24:18.032Z,71.64
2023-05-04T23:27:06.385Z,72.22
2023-05-04T23:29:53.138Z,72.15
2023-05-04T23:32:39.883Z,74.08
2023-05-04T23:35:27.077Z,74.41
2023-05-04T23:38:14.005Z,74.25
2023-05-04T23:41:03.390Z,75.10
2023-05-04T23:43:51.479Z,74.75
2023-05-04T23:46:38.301Z,74.82
2023-05-04T23:49:25.239Z,74.59
2023-05-04T23:52:12.036Z,77.79
2023-05-04T23:54:58.712Z,79.49
2023-05-04T23:57:45.583Z,77.80
